Time;durP1;ratioP1;P1;durP2;ratioP2;P2;SDS_P1;SDS_P2;PMS_P1;PMS_P2;Temp;Humidity;BMP_temperature;BMP_pressure;BME280_temperature;BME280_humidity;BME280_pressure;Samples;Min_cycle;Max_cycle;Signal;HPM_P1;HPM_P2
2023/05/04 00:01:09;;;;;;;20.45;11.10;;;;;;;;;;2555651;23;20009;-73
2023/05/04 00:02:33;;;;;;;20.55;11.25;;;;;;;;;;2548074;23;20009;-78
2023/05/04 00:03:54;;;;;;;18.98;11.07;;;;;;;;;;2541441;23;19998;-73
2023/05/04 00:05:15;;;;;;;20.80;11.60;;;;;;;;;;2544352;23;20014;-73
2023/05/04 00:06:36;;;;;;;36.67;15.70;;;;;;;;;;2541025;23;20070;-73
2023/05/04 00:07:57;;;;;;;20.00;11.32;;;;;;;;;;2547462;23;20061;-74
2023/05/04 00:09:18;;;;;;;20.63;11.20;;;;;;;;;;2546276;23;20024;-74
2023/05/04 00:10:39;;;;;;;16.33;10.80;;;;;;;;;;2543156;23;20025;-74
2023/05/04 00:12:01;;;;;;;16.42;10.95;;;;;;;;;;2539753;23;20427;-74
2023/05/04 00:13:24;;;;;;;17.27;11.05;;;;;;;;;;2544285;23;20016;-74
2023/05/04 00:14:45;;;;;;;19.23;11.60;;;;;;;;;;2547939;23;20463;-79
2023/05/04 00:16:07;;;;;;;18.45;10.07;;;;;;;;;;2549068;23;20006;-78
2023/05/04 00:17:28;;;;;;;20.02;11.20;;;;;;;;;;2545052;23;20013;-79
2023/05/04 00:18:49;;;;;;;21.35;12.05;;;;;;;;;;2556245;23;20005;-79
2023/05/04 00:20:13;;;;;;;18.50;11.13;;;;;;;;;;2546315;23;20458;-80
2023/05/04 00:21:34;;;;;;;15.32;10.15;;;;;;;;;;2542424;23;19997;-79
2023/05/04 00:22:55;;;;;;;20.95;12.23;;;;;;;;;;2541905;23;20009;-77
2023/05/04 00:24:16;;;;;;;34.15;14.65;;;;;;;;;;2546555;23;20013;-78
2023/05/04 00:25:37;;;;;;;25.58;12.80;;;;;;;;;;2542104;23;20009;-79
2023/05/04 00:27:01;;;;;;;39.58;15.50;;;;;;;;;;2543790;23;20016;-77
2023/05/04 00:28:22;;;;;;;32.17;14.10;;;;;;;;;;2540595;23;20684;-78
2023/05/04 00:29:43;;;;;;;32.60;14.30;;;;;;;;;;2537850;23;20013;-77
2023/05/04 00:31:04;;;;;;;36.47;14.50;;;;;;;;;;2543423;23;20064;-78
2023/05/04 00:32:26;;;;;;;17.00;11.13;;;;;;;;;;2543785;23;20009;-79
2023/05/04 00:33:46;;;;;;;20.70;12.27;;;;;;;;;;2543480;23;20017;-78
2023/05/04 00:35:08;;;;;;;39.67;15.00;;;;;;;;;;2536459;23;20001;-74
2023/05/04 00:36:28;;;;;;;22.30;11.70;;;;;;;;;;2551782;23;19989;-73
2023/05/04 00:37:51;;;;;;;37.47;14.63;;;;;;;;;;2540733;23;20009;-73
2023/05/04 00:39:15;;;;;;;19.75;11.82;;;;;;;;;;2545524;23;20016;-73
2023/05/04 00:40:36;;;;;;;39.33;14.90;;;;;;;;;;2537655;23;20008;-79
2023/05/04 00:42:03;;;;;;;18.52;11.15;;;;;;;;;;2541503;23;20017;-78
2023/05/04 00:43:25;;;;;;;23.98;12.60;;;;;;;;;;2544004;23;20013;-79
2023/05/04 00:44:46;;;;;;;19.52;10.80;;;;;;;;;;2556370;23;20019;-73
2023/05/04 00:46:07;;;;;;;19.65;11.73;;;;;;;;;;2549261;23;20415;-73
2023/05/04 00:47:28;;;;;;;37.97;14.43;;;;;;;;;;2545680;23;20021;-73
2023/05/04 00:48:51;;;;;;;39.05;15.15;;;;;;;;;;2551092;23;20020;-73
2023/05/04 00:50:11;;;;;;;;;;;;;;;;;;2539170;23;20005;-73
2023/05/04 00:51:33;;;;;;;40.80;15.27;;;;;;;;;;2551648;23;20262;-73
2023/05/04 00:52:55;;;;;;;41.22;16.52;;;;;;;;;;2545136;23;20021;-78
2023/05/04 00:54:22;;;;;;;44.58;17.08;;;;;;;;;;2539441;23;20354;-79
2023/05/04 00:55:43;;;;;;;41.88;16.27;;;;;;;;;;2552895;23;20446;-78
2023/05/04 00:57:07;;;;;;;39.78;15.48;;;;;;;;;;2539055;23;20013;-78
2023/05/04 00:58:27;;;;;;;38.22;15.10;;;;;;;;;;2552315;23;20005;-78
2023/05/04 00:59:48;;;;;;;39.45;15.32;;;;;;;;;;2542346;23;20013;-77
2023/05/04 01:01:09;;;;;;;22.67;12.02;;;;;;;;;;2544063;23;20024;-79
2023/05/04 01:02:30;;;;;;;32.33;13.88;;;;;;;;;;2551679;23;20012;-77
2023/05/04 01:03:55;;;;;;;32.72;14.85;;;;;;;;;;2545932;23;20006;-72
2023/05/04 01:05:16;;;;;;;31.70;14.57;;;;;;;;;;2541642;23;20296;-72
2023/05/04 01:06:37;;;;;;;29.83;14.40;;;;;;;;;;2542141;23;20013;-72
2023/05/04 01:08:02;;;;;;;30.40;13.52;;;;;;;;;;2542351;23;20013;-73
2023/05/04 01:09:36;;;;;;;39.55;15.05;;;;;;;;;;2551941;23;20021;-73
2023/05/04 01:11:00;;;;;;;27.05;12.73;;;;;;;;;;2542134;23;20024;-72
2023/05/04 01:12:26;;;;;;;34.45;14.10;;;;;;;;;;2549786;23;20005;-72
2023/05/04 01:13:48;;;;;;;25.48;13.05;;;;;;;;;;2541957;23;20020;-72
2023/05/04 01:15:09;;;;;;;28.90;13.05;;;;;;;;;;2542805;23;20006;-73
2023/05/04 01:16:30;;;;;;;29.48;12.98;;;;;;;;;;2541432;23;20029;-72
2023/05/04 01:17:51;;;;;;;37.38;14.60;;;;;;;;;;2543575;23;20012;-72
2023/05/04 01:19:15;;;;;;;26.77;13.50;;;;;;;;;;2543915;23;19989;-72
2023/05/04 01:20:36;;;;;;;32.95;14.30;;;;;;;;;;2539908;23;20021;-72
2023/05/04 01:21:57;;;;;;;38.90;15.90;;;;;;;;;;2539523;23;20581;-78
2023/05/04 01:23:18;;;;;;;40.03;14.10;;;;;;;;;;2549691;23;20009;-72
2023/05/04 01:24:39;;;;;;;33.60;14.38;;;;;;;;;;2542248;23;20020;-72
2023/05/04 01:26:10;;;;;;;34.97;13.68;;;;;;;;;;2537726;23;20021;-72
2023/05/04 01:27:40;;;;;;;36.50;14.23;;;;;;;;;;2542325;23;20009;-78
2023/05/04 01:29:10;;;;;;;44.53;17.23;;;;;;;;;;2540485;23;20388;-78
2023/05/04 01:30:36;;;;;;;40.50;16.65;;;;;;;;;;2527827;23;20018;-78
2023/05/04 01:31:57;;;;;;;41.08;16.52;;;;;;;;;;2530890;23;20435;-78
2023/05/04 01:33:19;;;;;;;21.52;12.77;;;;;;;;;;2530150;23;20053;-74
2023/05/04 01:34:40;;;;;;;18.40;11.70;;;;;;;;;;2534037;23;20345;-72
2023/05/04 01:36:05;;;;;;;16.00;11.63;;;;;;;;;;2533170;23;20002;-79
2023/05/04 01:37:25;;;;;;;21.30;12.10;;;;;;;;;;2532760;23;20010;-78
2023/05/04 01:38:47;;;;;;;18.05;10.85;;;;;;;;;;2541123;23;19996;-74
2023/05/04 01:40:10;;;;;;;33.95;15.02;;;;;;;;;;2535371;23;20440;-73
2023/05/04 01:41:31;;;;;;;22.67;12.55;;;;;;;;;;2533860;23;20018;-74
2023/05/04 01:42:52;;;;;;;13.93;10.80;;;;;;;;;;2534109;23;20123;-73
2023/05/04 01:44:13;;;;;;;26.48;13.85;;;;;;;;;;2541444;23;20489;-73
2023/05/04 01:45:34;;;;;;;22.90;12.85;;;;;;;;;;2532354;23;20044;-73
2023/05/04 01:46:58;;;;;;;21.70;11.98;;;;;;;;;;2533940;23;20001;-74
2023/05/04 01:48:22;;;;;;;17.90;11.65;;;;;;;;;;2534442;23;20351;-74
2023/05/04 01:49:43;;;;;;;20.17;12.57;;;;;;;;;;2533238;23;20443;-73
2023/05/04 01:51:04;;;;;;;17.17;11.95;;;;;;;;;;2528369;23;20483;-73
2023/05/04 01:52:27;;;;;;;19.27;10.90;;;;;;;;;;2540545;23;20006;-78
2023/05/04 01:53:51;;;;;;;20.88;11.88;;;;;;;;;;2545059;23;20063;-78
2023/05/04 01:55:12;;;;;;;18.05;11.43;;;;;;;;;;2531862;23;20017;-78
2023/05/04 01:56:33;;;;;;;15.98;11.13;;;;;;;;;;2530097;23;20474;-78
2023/05/04 01:57:56;;;;;;;16.27;11.35;;;;;;;;;;2530197;23;20013;-78
2023/05/04 01:59:17;;;;;;;18.38;11.70;;;;;;;;;;2543558;23;20009;-78
2023/05/04 02:00:41;;;;;;;16.80;11.65;;;;;;;;;;2534302;23;20029;-78
2023/05/04 02:02:02;;;;;;;17.08;11.10;;;;;;;;;;2532414;23;20010;-78
2023/05/04 02:03:23;;;;;;;20.30;12.07;;;;;;;;;;2531634;23;20010;-78
2023/05/04 02:04:44;;;;;;;16.33;11.15;;;;;;;;;;2534847;23;20014;-78
2023/05/04 02:06:08;;;;;;;17.67;10.80;;;;;;;;;;2534578;23;20431;-78
2023/05/04 02:07:29;;;;;;;22.08;11.35;;;;;;;;;;2533161;23;20013;-78
2023/05/04 02:08:53;;;;;;;21.50;11.57;;;;;;;;;;2530119;23;20078;-73
2023/05/04 02:10:14;;;;;;;28.25;13.38;;;;;;;;;;2532502;23;20013;-73
2023/05/04 02:11:35;;;;;;;18.58;11.10;;;;;;;;;;2532450;23;20443;-73
2023/05/04 02:12:56;;;;;;;14.45;11.18;;;;;;;;;;2530047;23;20006;-72
2023/05/04 02:14:17;;;;;;;24.02;12.98;;;;;;;;;;2533645;23;20014;-72
2023/05/04 02:15:38;;;;;;;24.02;11.70;;;;;;;;;;2533515;23;20013;-78
2023/05/04 02:16:59;;;;;;;22.60;11.75;;;;;;;;;;2531051;23;20037;-78
2023/05/04 02:18:23;;;;;;;23.73;11.23;;;;;;;;;;2533571;23;20006;-77
2023/05/04 02:19:44;;;;;;;18.35;11.98;;;;;;;;;;2533963;23;20010;-78
2023/05/04 02:21:05;;;;;;;14.43;11.10;;;;;;;;;;2533767;23;20456;-77
2023/05/04 02:22:29;;;;;;;32.95;13.88;;;;;;;;;;2532437;23;20011;-78
2023/05/04 02:23:50;;;;;;;20.88;12.02;;;;;;;;;;2534431;23;20016;-77
2023/05/04 02:25:11;;;;;;;24.73;12.03;;;;;;;;;;2535385;23;20001;-78
2023/05/04 02:26:32;;;;;;;19.27;12.35;;;;;;;;;;2532241;23;20010;-77
2023/05/04 02:27:53;;;;;;;25.83;12.90;;;;;;;;;;2533239;23;20013;-77
2023/05/04 02:29:14;;;;;;;21.08;11.25;;;;;;;;;;2533400;23;20014;-78
2023/05/04 02:30:35;;;;;;;21.10;11.98;;;;;;;;;;2535153;23;20432;-72
2023/05/04 02:31:56;;;;;;;20.27;12.30;;;;;;;;;;2546295;23;20021;-73
2023/05/04 02:33:16;;;;;;;20.05;12.13;;;;;;;;;;2547645;23;20006;-73
2023/05/04 02:34:37;;;;;;;18.35;11.60;;;;;;;;;;2540486;23;20447;-72
2023/05/04 02:35:58;;;;;;;22.08;12.60;;;;;;;;;;2536117;23;19998;-77
2023/05/04 02:37:19;;;;;;;26.85;13.52;;;;;;;;;;2533329;23;20017;-77
2023/05/04 02:38:40;;;;;;;26.13;13.00;;;;;;;;;;2542284;23;20088;-73
2023/05/04 02:40:01;;;;;;;19.88;10.95;;;;;;;;;;2540762;23;20016;-72
2023/05/04 02:41:22;;;;;;;16.88;12.32;;;;;;;;;;2533982;23;20021;-72
2023/05/04 02:42:43;;;;;;;21.20;12.20;;;;;;;;;;2532678;23;20597;-72
2023/05/04 02:44:04;;;;;;;18.77;11.50;;;;;;;;;;2534567;23;20022;-72
2023/05/04 02:45:25;;;;;;;18.33;11.65;;;;;;;;;;2534431;23;19990;-72
2023/05/04 02:46:45;;;;;;;16.48;11.85;;;;;;;;;;2530240;23;20014;-72
2023/05/04 02:48:06;;;;;;;16.80;12.07;;;;;;;;;;2541602;23;20060;-72
2023/05/04 02:49:27;;;;;;;21.40;12.02;;;;;;;;;;2548736;23;20374;-72
2023/05/04 02:50:48;;;;;;;22.85;12.48;;;;;;;;;;2538465;23;20006;-77
2023/05/04 02:52:09;;;;;;;40.55;15.43;;;;;;;;;;2534359;23;20017;-77
2023/05/04 02:53:30;;;;;;;20.33;12.32;;;;;;;;;;2536190;23;20022;-77
2023/05/04 02:54:51;;;;;;;23.98;12.40;;;;;;;;;;2536157;23;20403;-78
2023/05/04 02:56:12;;;;;;;16.23;11.40;;;;;;;;;;2532190;23;20021;-77
2023/05/04 02:57:32;;;;;;;20.00;12.52;;;;;;;;;;2530083;23;20010;-77
2023/05/04 02:58:57;;;;;;;21.20;11.93;;;;;;;;;;2532130;23;20010;-78
2023/05/04 03:00:18;;;;;;;30.23;13.70;;;;;;;;;;2530948;23;20367;-73
2023/05/04 03:01:38;;;;;;;17.05;11.63;;;;;;;;;;2541720;23;20010;-73
2023/05/04 03:03:00;;;;;;;18.17;11.88;;;;;;;;;;2533890;23;20005;-73
2023/05/04 03:04:23;;;;;;;25.95;13.18;;;;;;;;;;2540118;23;19997;-72
2023/05/04 03:05:44;;;;;;;20.65;12.70;;;;;;;;;;2532979;23;20010;-76
2023/05/04 03:07:07;;;;;;;27.65;12.60;;;;;;;;;;2531539;23;20010;-77
2023/05/04 03:08:29;;;;;;;19.65;11.80;;;;;;;;;;2543111;23;20058;-77
2023/05/04 03:09:50;;;;;;;28.92;12.90;;;;;;;;;;2538582;23;20021;-77
2023/05/04 03:11:11;;;;;;;19.30;12.13;;;;;;;;;;2545565;23;20017;-78
2023/05/04 03:12:32;;;;;;;25.42;13.48;;;;;;;;;;2538791;23;20013;-77
2023/05/04 03:13:53;;;;;;;34.53;14.23;;;;;;;;;;2545598;23;20010;-78
2023/05/04 03:15:14;;;;;;;20.17;11.88;;;;;;;;;;2546424;23;20400;-77
2023/05/04 03:16:35;;;;;;;22.43;12.37;;;;;;;;;;2532962;23;20033;-77
2023/05/04 03:17:56;;;;;;;20.83;12.02;;;;;;;;;;2541362;23;20395;-78
2023/05/04 03:19:20;;;;;;;17.17;11.50;;;;;;;;;;2533804;23;19990;-78
2023/05/04 03:20:41;;;;;;;18.38;11.15;;;;;;;;;;2540339;23;20065;-78
2023/05/04 03:22:02;;;;;;;22.27;12.70;;;;;;;;;;2545341;23;20021;-72
2023/05/04 03:23:23;;;;;;;19.95;12.02;;;;;;;;;;2549552;23;20017;-72
2023/05/04 03:24:44;;;;;;;17.63;11.63;;;;;;;;;;2540915;23;20029;-77
2023/05/04 03:26:05;;;;;;;16.88;12.05;;;;;;;;;;2531055;23;20060;-77
2023/05/04 03:27:26;;;;;;;21.33;12.05;;;;;;;;;;2528649;23;20021;-77
2023/05/04 03:28:47;;;;;;;17.00;11.48;;;;;;;;;;2542457;23;20100;-77
2023/05/04 03:30:08;;;;;;;20.15;12.70;;;;;;;;;;2530557;23;20018;-77
2023/05/04 03:31:31;;;;;;;19.95;11.85;;;;;;;;;;2538067;23;20024;-77
2023/05/04 03:32:52;;;;;;;16.20;11.27;;;;;;;;;;2544300;23;20010;-78
2023/05/04 03:34:13;;;;;;;19.20;12.00;;;;;;;;;;2544619;23;19997;-77
2023/05/04 03:35:34;;;;;;;23.02;12.27;;;;;;;;;;2541991;23;20343;-78
2023/05/04 03:36:56;;;;;;;16.65;10.95;;;;;;;;;;2554852;23;20012;-78
2023/05/04 03:38:17;;;;;;;;;;;;;;;;;;2547878;23;20451;-78
2023/05/04 03:39:38;;;;;;;17.25;12.15;;;;;;;;;;2545245;23;19908;-78
2023/05/04 03:40:59;;;;;;;19.33;12.48;;;;;;;;;;2545073;23;19994;-78
2023/05/04 03:42:20;;;;;;;16.95;10.43;;;;;;;;;;2544907;23;20056;-78
2023/05/04 03:43:41;;;;;;;14.52;11.23;;;;;;;;;;2544430;23;20009;-78
2023/05/04 03:45:02;;;;;;;18.70;11.68;;;;;;;;;;2555821;23;20009;-78
2023/05/04 03:46:26;;;;;;;22.00;11.45;;;;;;;;;;2545060;23;20005;-77
2023/05/04 03:47:46;;;;;;;22.30;11.88;;;;;;;;;;2557152;23;20016;-77
2023/05/04 03:49:07;;;;;;;18.17;12.32;;;;;;;;;;2542741;23;20446;-77
2023/05/04 03:50:28;;;;;;;20.25;11.20;;;;;;;;;;2544498;23;19990;-77
2023/05/04 03:51:49;;;;;;;24.60;12.25;;;;;;;;;;2545261;23;20017;-73
2023/05/04 03:53:10;;;;;;;17.50;12.95;;;;;;;;;;2546115;23;20446;-73
2023/05/04 03:54:31;;;;;;;17.98;11.55;;;;;;;;;;2547051;23;20009;-74
2023/05/04 03:55:52;;;;;;;25.33;12.00;;;;;;;;;;2558651;23;20009;-73
2023/05/04 03:57:15;;;;;;;18.08;12.38;;;;;;;;;;2545816;23;20010;-73
2023/05/04 03:58:36;;;;;;;15.18;11.48;;;;;;;;;;2543088;23;20009;-77
2023/05/04 03:59:57;;;;;;;17.55;12.18;;;;;;;;;;2546083;23;19997;-78
2023/05/04 04:01:18;;;;;;;21.83;13.57;;;;;;;;;;2544847;23;20009;-78
2023/05/04 04:02:39;;;;;;;23.38;12.90;;;;;;;;;;2539848;23;20378;-78
2023/05/04 04:03:59;;;;;;;20.55;12.48;;;;;;;;;;2552870;23;20009;-78
2023/05/04 04:05:20;;;;;;;15.45;11.45;;;;;;;;;;2548352;23;20009;-78
2023/05/04 04:06:41;;;;;;;18.77;11.75;;;;;;;;;;2544587;23;20006;-78
2023/05/04 04:08:02;;;;;;;23.75;11.90;;;;;;;;;;2552892;23;20370;-78
2023/05/04 04:09:23;;;;;;;16.08;11.82;;;;;;;;;;2550767;23;20010;-78
2023/05/04 04:10:44;;;;;;;32.20;14.20;;;;;;;;;;2545080;23;20509;-77
2023/05/04 04:12:05;;;;;;;19.70;13.00;;;;;;;;;;2546253;23;20009;-78
2023/05/04 04:13:26;;;;;;;21.58;11.93;;;;;;;;;;2552963;23;20009;-73
2023/05/04 04:14:51;;;;;;;18.07;11.77;;;;;;;;;;2544677;23;20017;-73
2023/05/04 04:16:12;;;;;;;22.23;12.70;;;;;;;;;;2554493;23;20005;-73
2023/05/04 04:17:33;;;;;;;20.75;11.48;;;;;;;;;;2550660;23;20006;-78
2023/05/04 04:18:53;;;;;;;22.83;13.18;;;;;;;;;;2546111;23;20447;-73
2023/05/04 04:20:15;;;;;;;29.42;13.32;;;;;;;;;;2545125;23;20013;-73
2023/05/04 04:21:36;;;;;;;18.65;11.75;;;;;;;;;;2546446;23;20052;-73
2023/05/04 04:22:59;;;;;;;21.08;13.13;;;;;;;;;;2544715;23;20447;-73
2023/05/04 04:24:20;;;;;;;20.40;12.45;;;;;;;;;;2542693;23;20009;-73
2023/05/04 04:25:45;;;;;;;18.83;13.02;;;;;;;;;;2545146;23;20009;-73
2023/05/04 04:27:06;;;;;;;27.95;12.50;;;;;;;;;;2547518;23;20017;-73
2023/05/04 04:28:29;;;;;;;16.42;12.15;;;;;;;;;;2552962;23;20017;-73
2023/05/04 04:29:53;;;;;;;20.10;12.43;;;;;;;;;;2544954;23;20025;-73
2023/05/04 04:31:14;;;;;;;22.65;13.00;;;;;;;;;;2551913;23;20021;-73
2023/05/04 04:32:38;;;;;;;18.65;11.75;;;;;;;;;;2546264;23;20010;-78
2023/05/04 04:34:01;;;;;;;25.23;12.60;;;;;;;;;;2544826;23;20006;-73
2023/05/04 04:35:26;;;;;;;24.05;13.43;;;;;;;;;;2554197;23;20005;-77
2023/05/04 04:36:47;;;;;;;17.98;11.88;;;;;;;;;;2545231;23;20010;-78
2023/05/04 04:38:08;;;;;;;16.70;11.20;;;;;;;;;;2541041;23;20005;-79
2023/05/04 04:39:29;;;;;;;18.02;12.00;;;;;;;;;;2541734;23;20462;-78
2023/05/04 04:40:50;;;;;;;23.50;12.52;;;;;;;;;;2557553;23;20009;-78
2023/05/04 04:42:12;;;;;;;22.98;12.82;;;;;;;;;;2544045;23;20279;-77
2023/05/04 04:43:33;;;;;;;21.80;13.32;;;;;;;;;;2556893;23;20013;-78
2023/05/04 04:44:54;;;;;;;13.82;11.40;;;;;;;;;;2543618;23;20041;-78
2023/05/04 04:46:15;;;;;;;21.08;11.70;;;;;;;;;;2555551;23;20009;-77
2023/05/04 04:47:38;;;;;;;19.95;11.95;;;;;;;;;;2557521;23;20039;-77
2023/05/04 04:49:02;;;;;;;20.88;12.68;;;;;;;;;;2549454;23;20046;-78
2023/05/04 04:50:23;;;;;;;18.30;12.10;;;;;;;;;;2556256;23;20044;-72
2023/05/04 04:51:47;;;;;;;17.92;10.35;;;;;;;;;;2542623;23;20025;-77
2023/05/04 04:53:08;;;;;;;23.63;13.02;;;;;;;;;;2544202;23;20009;-73
2023/05/04 04:54:30;;;;;;;19.90;11.45;;;;;;;;;;2540895;23;20344;-73
2023/05/04 04:55:52;;;;;;;24.17;13.00;;;;;;;;;;2552661;23;20442;-72
2023/05/04 04:57:12;;;;;;;16.60;11.88;;;;;;;;;;2545487;23;20006;-73
2023/05/04 04:58:33;;;;;;;23.40;11.70;;;;;;;;;;2540204;23;20016;-72
2023/05/04 04:59:54;;;;;;;22.55;12.18;;;;;;;;;;2541319;23;20016;-72
2023/05/04 05:01:16;;;;;;;16.83;12.10;;;;;;;;;;2553268;23;20040;-72
2023/05/04 05:02:37;;;;;;;17.60;11.13;;;;;;;;;;2557426;23;20013;-72
2023/05/04 05:03:58;;;;;;;17.08;11.38;;;;;;;;;;2544626;23;20068;-73
2023/05/04 05:05:19;;;;;;;20.63;12.15;;;;;;;;;;2554420;23;20009;-73
2023/05/04 05:06:40;;;;;;;17.13;11.45;;;;;;;;;;2544203;23;20009;-72
2023/05/04 05:08:01;;;;;;;30.38;13.57;;;;;;;;;;2551066;23;20017;-73
2023/05/04 05:09:22;;;;;;;19.85;12.18;;;;;;;;;;2555291;23;20009;-73
2023/05/04 05:10:51;;;;;;;20.60;12.10;;;;;;;;;;2555870;23;20350;-73
2023/05/04 05:12:11;;;;;;;31.80;14.35;;;;;;;;;;2543150;23;20035;-77
2023/05/04 05:13:32;;;;;;;23.63;12.15;;;;;;;;;;2553502;23;20005;-78
2023/05/04 05:14:53;;;;;;;19.08;11.50;;;;;;;;;;2544936;23;20005;-73
2023/05/04 05:16:14;;;;;;;24.08;12.70;;;;;;;;;;2544158;23;20485;-73
2023/05/04 05:17:36;;;;;;;19.85;11.90;;;;;;;;;;2559326;23;20012;-73
2023/05/04 05:18:57;;;;;;;15.43;11.40;;;;;;;;;;2559534;23;20005;-72
2023/05/04 05:20:18;;;;;;;19.77;11.93;;;;;;;;;;2543320;23;20013;-72
2023/05/04 05:21:39;;;;;;;22.52;12.35;;;;;;;;;;2540183;23;20020;-73
2023/05/04 05:22:59;;;;;;;22.08;12.65;;;;;;;;;;2552288;23;20009;-73
2023/05/04 05:24:23;;;;;;;17.65;10.90;;;;;;;;;;2546753;23;20454;-72
2023/05/04 05:25:44;;;;;;;22.10;12.30;;;;;;;;;;2554824;23;20469;-78
2023/05/04 05:27:07;;;;;;;20.70;11.45;;;;;;;;;;2545795;23;20013;-78
2023/05/04 05:28:29;;;;;;;22.13;12.18;;;;;;;;;;2555089;23;20012;-78
2023/05/04 05:29:51;;;;;;;18.52;11.43;;;;;;;;;;2543928;23;20388;-73
2023/05/04 05:31:12;;;;;;;18.83;12.25;;;;;;;;;;2553400;23;20024;-78
2023/05/04 05:32:33;;;;;;;18.92;11.40;;;;;;;;;;2547983;23;20535;-78
2023/05/04 05:33:54;;;;;;;20.48;11.75;;;;;;;;;;2542838;23;20021;-78
2023/05/04 05:35:15;;;;;;;20.33;11.93;;;;;;;;;;2542153;23;20371;-77
2023/05/04 05:36:36;;;;;;;20.25;11.38;;;;;;;;;;2540543;23;20081;-78
2023/05/04 05:37:57;;;;;;;15.00;11.63;;;;;;;;;;2541905;23;20005;-77
2023/05/04 05:39:18;;;;;;;19.38;12.10;;;;;;;;;;2552675;23;20012;-78
2023/05/04 05:40:39;;;;;;;17.52;11.00;;;;;;;;;;2558031;23;20512;-78
2023/05/04 05:42:00;;;;;;;20.80;11.20;;;;;;;;;;2548540;23;20021;-72
2023/05/04 05:43:21;;;;;;;26.05;13.00;;;;;;;;;;2541960;23;20526;-73
2023/05/04 05:44:42;;;;;;;19.35;11.77;;;;;;;;;;2552822;23;20017;-73
2023/05/04 05:46:05;;;;;;;18.65;12.05;;;;;;;;;;2554506;23;20009;-73
2023/05/04 05:47:26;;;;;;;22.45;13.50;;;;;;;;;;2541641;23;20422;-73
2023/05/04 05:48:46;;;;;;;21.33;12.00;;;;;;;;;;2554448;23;20013;-74
2023/05/04 05:50:08;;;;;;;21.13;11.77;;;;;;;;;;2553701;23;20017;-73
2023/05/04 05:51:29;;;;;;;21.15;11.57;;;;;;;;;;2543165;23;20014;-73
2023/05/04 05:52:50;;;;;;;16.95;11.00;;;;;;;;;;2553637;23;20009;-73
2023/05/04 05:54:13;;;;;;;22.52;12.00;;;;;;;;;;2544843;23;20103;-73
2023/05/04 05:55:36;;;;;;;20.08;12.63;;;;;;;;;;2544066;23;20057;-73
2023/05/04 05:56:57;;;;;;;23.05;12.23;;;;;;;;;;2554530;23;20012;-73
2023/05/04 05:58:18;;;;;;;17.80;12.52;;;;;;;;;;2548083;23;20014;-73
2023/05/04 05:59:41;;;;;;;18.88;11.68;;;;;;;;;;2555233;23;20339;-73
2023/05/04 06:01:02;;;;;;;21.10;11.95;;;;;;;;;;2543067;23;20010;-73
2023/05/04 06:02:23;;;;;;;16.90;11.02;;;;;;;;;;2542375;23;20020;-73
2023/05/04 06:03:44;;;;;;;22.08;11.35;;;;;;;;;;2542687;23;20370;-73
2023/05/04 06:05:05;;;;;;;16.77;11.13;;;;;;;;;;2543302;23;20009;-73
2023/05/04 06:06:26;;;;;;;18.13;11.32;;;;;;;;;;2541117;23;20367;-73
2023/05/04 06:07:47;;;;;;;20.63;11.50;;;;;;;;;;2541838;23;20021;-73
2023/05/04 06:09:07;;;;;;;17.20;11.23;;;;;;;;;;2552276;23;20457;-73
2023/05/04 06:10:28;;;;;;;17.27;11.57;;;;;;;;;;2556735;23;20009;-73
2023/05/04 06:11:49;;;;;;;16.92;11.23;;;;;;;;;;2555444;23;20017;-74
2023/05/04 06:13:10;;;;;;;21.77;12.80;;;;;;;;;;2560249;23;20016;-73
2023/05/04 06:14:34;;;;;;;18.67;11.43;;;;;;;;;;2545799;23;20495;-73
2023/05/04 06:15:55;;;;;;;17.88;12.13;;;;;;;;;;2555939;23;20020;-73
2023/05/04 06:17:17;;;;;;;15.93;11.73;;;;;;;;;;2545935;23;20340;-73
2023/05/04 06:18:38;;;;;;;22.00;11.70;;;;;;;;;;2544114;23;19990;-73
2023/05/04 06:19:59;;;;;;;20.08;11.77;;;;;;;;;;2556787;23;20056;-78
2023/05/04 06:21:20;;;;;;;18.30;11.77;;;;;;;;;;2547379;23;20044;-73
2023/05/04 06:22:41;;;;;;;34.78;13.23;;;;;;;;;;2554891;23;20473;-72
2023/05/04 06:24:02;;;;;;;22.60;11.57;;;;;;;;;;2544623;23;20347;-73
2023/05/04 06:25:23;;;;;;;17.58;11.05;;;;;;;;;;2541731;23;20030;-73
2023/05/04 06:26:44;;;;;;;26.48;13.88;;;;;;;;;;2550675;23;20016;-72
2023/05/04 06:28:05;;;;;;;24.45;13.77;;;;;;;;;;2544351;23;20530;-73
2023/05/04 06:29:26;;;;;;;33.20;13.60;;;;;;;;;;2551830;23;20004;-73
2023/05/04 06:30:47;;;;;;;17.20;11.30;;;;;;;;;;2556565;23;20013;-73
2023/05/04 06:32:11;;;;;;;37.83;14.60;;;;;;;;;;2538044;23;20025;-73
2023/05/04 06:33:31;;;;;;;21.50;11.48;;;;;;;;;;2541349;23;20367;-77
2023/05/04 06:34:55;;;;;;;26.85;12.15;;;;;;;;;;2542976;23;20005;-78
2023/05/04 06:36:16;;;;;;;23.05;11.32;;;;;;;;;;2543965;23;20009;-78
2023/05/04 06:37:40;;;;;;;26.35;12.80;;;;;;;;;;2553437;23;20462;-77
2023/05/04 06:39:01;;;;;;;23.33;11.95;;;;;;;;;;2554971;23;20009;-78
2023/05/04 06:40:23;;;;;;;32.65;14.23;;;;;;;;;;2544027;23;20013;-78
2023/05/04 06:41:47;;;;;;;16.92;11.38;;;;;;;;;;2549697;23;20017;-78
2023/05/04 06:43:08;;;;;;;46.40;15.60;;;;;;;;;;2540989;23;20113;-78
2023/05/04 06:44:29;;;;;;;26.45;12.35;;;;;;;;;;2553545;23;20009;-78
2023/05/04 06:45:52;;;;;;;20.85;11.15;;;;;;;;;;2545565;23;20010;-77
2023/05/04 06:47:16;;;;;;;18.33;11.15;;;;;;;;;;2543762;23;20363;-78
2023/05/04 06:48:40;;;;;;;20.63;10.52;;;;;;;;;;2541558;23;20016;-78
2023/05/04 06:50:05;;;;;;;17.85;10.85;;;;;;;;;;2542921;23;20608;-78
2023/05/04 06:51:26;;;;;;;29.77;13.77;;;;;;;;;;2555520;23;20016;-79
2023/05/04 06:52:49;;;;;;;19.70;10.23;;;;;;;;;;2545638;23;20020;-79
2023/05/04 06:54:11;;;;;;;21.23;10.20;;;;;;;;;;2541624;23;20025;-80
2023/05/04 06:55:34;;;;;;;20.15;10.45;;;;;;;;;;2546284;23;20013;-79
2023/05/04 06:56:55;;;;;;;16.17;10.23;;;;;;;;;;2556745;23;20017;-79
2023/05/04 06:58:20;;;;;;;18.90;9.70;;;;;;;;;;2546077;23;20049;-75
2023/05/04 06:59:44;;;;;;;17.33;10.05;;;;;;;;;;2543433;23;20009;-75
2023/05/04 07:01:07;;;;;;;25.35;11.77;;;;;;;;;;2555197;23;20001;-74
2023/05/04 07:02:31;;;;;;;21.13;11.57;;;;;;;;;;2544879;23;20017;-73
2023/05/04 08:05:55;;;;;;;17.92;10.30;;;;;;;;;;2545857;23;20025;-90
2023/05/04 08:07:21;;;;;;;16.90;9.98;;;;;;;;;;2550276;23;20014;-89
2023/05/04 08:08:43;;;;;;;28.42;10.80;;;;;;;;;;2531877;23;20372;-90
2023/05/04 08:10:04;;;;;;;;;;;;;;;;;;2545448;23;20021;-89
2023/05/04 08:11:25;;;;;;;21.98;10.27;;;;;;;;;;2546930;23;19917;-90
2023/05/04 08:12:46;;;;;;;20.33;10.35;;;;;;;;;;2536346;23;20010;-89
2023/05/04 08:14:10;;;;;;;16.63;10.23;;;;;;;;;;2540880;23;20021;-90
2023/05/04 08:15:33;;;;;;;17.95;9.48;;;;;;;;;;2538629;23;20057;-90
2023/05/04 08:16:54;;;;;;;22.50;10.00;;;;;;;;;;2531105;23;20013;-90
2023/05/04 08:18:20;;;;;;;20.85;9.85;;;;;;;;;;2533558;23;20044;-91
2023/05/04 08:19:46;;;;;;;19.38;10.55;;;;;;;;;;2545215;23;20009;-94
2023/05/04 08:21:13;;;;;;;21.30;10.00;;;;;;;;;;2533309;23;20021;-90
2023/05/04 08:49:43;;;;;;;29.75;14.32;;;;;;;;;;2529657;23;20253;-92
2023/05/04 08:51:08;;;;;;;12.07;8.75;;;;;;;;;;2539778;23;20022;-92
2023/05/04 08:52:43;;;;;;;37.80;15.70;;;;;;;;;;2519319;23;20010;-92
2023/05/04 08:54:09;;;;;;;14.23;8.93;;;;;;;;;;2523602;23;20010;-92
2023/05/04 08:55:45;;;;;;;17.08;8.98;;;;;;;;;;2530607;23;20013;-90
2023/05/04 08:57:20;;;;;;;;;;;;;;;;;;;;;
2023/05/04 08:59:12;;;;;;;11.55;8.13;;;;;;;;;;2552598;23;20016;-91
2023/05/04 09:00:36;;;;;;;14.38;9.32;;;;;;;;;;2532275;23;20006;-91
2023/05/04 09:02:05;;;;;;;19.67;9.98;;;;;;;;;;2545796;23;20020;-92
2023/05/04 09:03:35;;;;;;;17.42;8.85;;;;;;;;;;2551274;23;20024;-91
2023/05/04 09:05:25;;;;;;;21.50;10.00;;;;;;;;;;2536839;23;20005;-92
2023/05/04 09:07:01;;;;;;;14.20;9.07;;;;;;;;;;2533896;23;20009;-91
2023/05/04 09:10:12;;;;;;;17.80;10.02;;;;;;;;;;2549322;23;20021;-89
2023/05/04 09:11:33;;;;;;;20.92;9.98;;;;;;;;;;2536868;23;20006;-92
2023/05/04 09:13:15;;;;;;;30.17;14.73;;;;;;;;;;2508722;23;20038;-93
2023/05/04 09:14:36;;;;;;;14.30;8.30;;;;;;;;;;2535795;23;20013;-91
2023/05/04 09:16:00;;;;;;;17.33;9.30;;;;;;;;;;2544661;23;20017;-93
2023/05/04 09:17:32;;;;;;;15.80;9.40;;;;;;;;;;2536643;23;20066;-91
2023/05/04 09:18:58;;;;;;;20.88;9.80;;;;;;;;;;2546535;23;20114;-92
2023/05/04 09:24:15;;;;;;;14.80;8.85;;;;;;;;;;2548995;23;20021;-92
2023/05/04 09:26:08;;;;;;;;;;;;;;;;;;;;;
2023/05/04 09:30:02;;;;;;;14.25;9.05;;;;;;;;;;2514896;23;20007;-91
2023/05/04 09:31:46;;;;;;;16.45;8.77;;;;;;;;;;2526050;23;20034;-93
2023/05/04 09:33:43;;;;;;;47.75;20.17;;;;;;;;;;2471064;23;20039;-91
2023/05/04 09:35:25;;;;;;;22.52;10.27;;;;;;;;;;2454736;24;20053;-91
2023/05/04 09:37:13;;;;;;;23.55;10.32;;;;;;;;;;2409244;24;20075;-92
2023/05/04 09:45:16;;;;;;;15.57;9.48;;;;;;;;;;2427047;24;20018;-92
2023/05/04 09:46:43;;;;;;;15.50;8.60;;;;;;;;;;2440106;24;20016;-91
2023/05/04 09:48:19;;;;;;;14.93;9.63;;;;;;;;;;2472392;24;20012;-91